createdAt,value
2023-02-23T00:16:40.428Z,49.2
2023-02-23T00:36:40.440Z,49.3
2023-02-23T00:56:40.414Z,49.4
2023-02-23T01:16:40.396Z,49.5
2023-02-23T01:36:40.346Z,49.7
2023-02-23T01:56:40.322Z,49.8
2023-02-23T02:16:40.326Z,49.8
2023-02-23T02:36:40.296Z,49.9
2023-02-23T02:56:40.231Z,50.0
2023-02-23T03:16:40.248Z,50.0
2023-02-23T03:36:40.225Z,50.1
2023-02-23T03:56:40.155Z,50.2
2023-02-23T04:16:40.184Z,50.1
2023-02-23T04:36:40.129Z,49.5
2023-02-23T04:56:40.116Z,49.4
2023-02-23T05:16:40.096Z,49.3
2023-02-23T05:36:40.061Z,49.2
2023-02-23T05:56:40.142Z,49.2
2023-02-23T06:16:40.002Z,49.2
2023-02-23T06:36:39.984Z,49.2
2023-02-23T06:56:39.963Z,49.2
2023-02-23T07:16:39.926Z,49.1
2023-02-23T07:36:39.876Z,50.1
2023-02-23T07:56:39.893Z,50.2
2023-02-23T08:16:39.873Z,50.2
2023-02-23T08:36:39.928Z,50.2
2023-02-23T08:56:39.842Z,50.2
2023-02-23T09:16:39.764Z,50.2
2023-02-23T09:36:39.785Z,50.3
2023-02-23T09:56:39.759Z,50.4
2023-02-23T10:16:39.781Z,50.4
2023-02-23T10:36:39.681Z,50.6
2023-02-23T10:56:39.645Z,50.6
2023-02-23T11:16:39.636Z,50.4
2023-02-23T11:36:39.717Z,50.3
2023-02-23T11:56:39.653Z,50.3
2023-02-23T12:16:39.711Z,50.2
2023-02-23T12:36:39.513Z,50.2
2023-02-23T12:56:39.568Z,50.1
2023-02-23T13:16:39.481Z,50.1
2023-02-23T13:36:39.468Z,50.1
2023-02-23T13:56:39.441Z,50.1
2023-02-23T14:16:39.400Z,50.1
2023-02-23T14:36:39.388Z,50.1
2023-02-23T14:56:39.343Z,50.0
2023-02-23T15:16:39.495Z,50.0
2023-02-23T15:36:39.427Z,50.0
2023-02-23T15:56:39.265Z,50.0
2023-02-23T16:16:39.449Z,50.0
2023-02-23T16:36:39.421Z,50.0
2023-02-23T16:56:39.349Z,49.9
2023-02-23T17:16:39.198Z,49.8
2023-02-23T17:36:39.351Z,49.9
2023-02-23T17:56:39.269Z,49.9
2023-02-23T18:16:39.164Z,49.9
2023-02-23T18:56:39.208Z,50.6
2023-02-23T19:16:39.166Z,50.6
2023-02-23T19:36:39.149Z,50.8
2023-02-23T19:56:39.159Z,50.7
2023-02-23T20:16:38.962Z,51.3
2023-02-23T20:36:39.101Z,51.3
2023-02-23T20:56:39.047Z,51.0
2023-02-23T21:16:39.025Z,50.9
2023-02-23T21:36:39.094Z,50.8
2023-02-23T21:56:39.027Z,50.7
2023-02-23T22:16:38.995Z,50.6
2023-02-23T22:36:38.944Z,50.6
2023-02-23T22:56:38.727Z,50.7
2023-02-23T23:16:38.842Z,50.7
2023-02-23T23:36:38.691Z,50.7
2023-02-23T23:56:38.781Z,50.7
